sensor_id;sensor_type;location;lat;lon;timestamp;temperature;humidity
1021;DHT22;499;42.648;23.270;2023-07-13T00:00:22;22.50;19.90
1021;DHT22;499;42.648;23.270;2023-07-13T00:02:49;22.50;19.90
1021;DHT22;499;42.648;23.270;2023-07-13T00:05:19;22.40;19.80
1021;DHT22;499;42.648;23.270;2023-07-13T00:07:46;22.40;19.80
1021;DHT22;499;42.648;23.270;2023-07-13T00:10:14;22.40;19.80
1021;DHT22;499;42.648;23.270;2023-07-13T00:12:42;22.40;19.80
1021;DHT22;499;42.648;23.270;2023-07-13T00:15:13;22.40;19.80
1021;DHT22;499;42.648;23.270;2023-07-13T00:17:43;22.40;19.80
1021;DHT22;499;42.648;23.270;2023-07-13T00:20:11;22.30;19.70
1021;DHT22;499;42.648;23.270;2023-07-13T00:22:38;22.20;19.70
1021;DHT22;499;42.648;23.270;2023-07-13T00:25:06;22.20;20.40
1021;DHT22;499;42.648;23.270;2023-07-13T00:27:33;22.10;20.60
1021;DHT22;499;42.648;23.270;2023-07-13T00:30:00;22.20;20.40
1021;DHT22;499;42.648;23.270;2023-07-13T00:32:28;22.20;21.00
1021;DHT22;499;42.648;23.270;2023-07-13T00:34:57;22.10;21.10
1021;DHT22;499;42.648;23.270;2023-07-13T00:37:26;22.10;21.20
1021;DHT22;499;42.648;23.270;2023-07-13T00:39:53;22.10;21.20
1021;DHT22;499;42.648;23.270;2023-07-13T00:42:20;22.00;21.70
1021;DHT22;499;42.648;23.270;2023-07-13T00:46:08;21.90;22.00
1021;DHT22;499;42.648;23.270;2023-07-13T00:47:56;21.90;21.90
1021;DHT22;499;42.648;23.270;2023-07-13T00:50:26;21.80;22.30
1021;DHT22;499;42.648;23.270;2023-07-13T00:52:55;21.70;22.60
1021;DHT22;499;42.648;23.270;2023-07-13T00:55:23;21.80;22.60
1021;DHT22;499;42.648;23.270;2023-07-13T00:57:51;21.60;23.00
1021;DHT22;499;42.648;23.270;2023-07-13T01:00:19;21.70;22.90
1021;DHT22;499;42.648;23.270;2023-07-13T01:02:49;21.70;22.90
1021;DHT22;499;42.648;23.270;2023-07-13T01:05:19;21.60;23.30
1021;DHT22;499;42.648;23.270;2023-07-13T01:07:49;21.50;23.30
1021;DHT22;499;42.648;23.270;2023-07-13T01:10:20;21.60;23.30
1021;DHT22;499;42.648;23.270;2023-07-13T01:12:48;21.50;23.10
1021;DHT22;499;42.648;23.270;2023-07-13T01:15:36;21.50;23.20
1021;DHT22;499;42.648;23.270;2023-07-13T01:18:04;21.40;24.30
1021;DHT22;499;42.648;23.270;2023-07-13T01:20:32;21.40;24.30
1021;DHT22;499;42.648;23.270;2023-07-13T01:23:04;21.50;24.30
1021;DHT22;499;42.648;23.270;2023-07-13T01:25:32;21.30;24.60
1021;DHT22;499;42.648;23.270;2023-07-13T01:27:59;21.30;25.00
1021;DHT22;499;42.648;23.270;2023-07-13T01:30:26;21.30;25.40
1021;DHT22;499;42.648;23.270;2023-07-13T01:32:53;21.40;25.00
1021;DHT22;499;42.648;23.270;2023-07-13T01:35:21;21.30;25.30
1021;DHT22;499;42.648;23.270;2023-07-13T01:37:48;21.20;25.50
1021;DHT22;499;42.648;23.270;2023-07-13T01:40:18;21.20;25.70
1021;DHT22;499;42.648;23.270;2023-07-13T01:42:45;21.30;25.10
1021;DHT22;499;42.648;23.270;2023-07-13T01:45:13;21.20;25.80
1021;DHT22;499;42.648;23.270;2023-07-13T01:47:40;21.20;25.40
1021;DHT22;499;42.648;23.270;2023-07-13T01:50:08;21.20;25.70
1021;DHT22;499;42.648;23.270;2023-07-13T01:52:35;21.20;25.70
1021;DHT22;499;42.648;23.270;2023-07-13T01:55:03;21.10;25.90
1021;DHT22;499;42.648;23.270;2023-07-13T01:57:32;21.10;26.20
1021;DHT22;499;42.648;23.270;2023-07-13T02:00:03;21.20;26.10
1021;DHT22;499;42.648;23.270;2023-07-13T02:02:31;21.30;26.10
1021;DHT22;499;42.648;23.270;2023-07-13T02:04:58;21.40;27.00
1021;DHT22;499;42.648;23.270;2023-07-13T02:07:26;21.00;26.80
1021;DHT22;499;42.648;23.270;2023-07-13T02:09:53;20.80;27.40
1021;DHT22;499;42.648;23.270;2023-07-13T02:12:20;20.80;28.30
1021;DHT22;499;42.648;23.270;2023-07-13T02:14:49;20.80;28.50
1021;DHT22;499;42.648;23.270;2023-07-13T02:17:16;20.90;27.90
1021;DHT22;499;42.648;23.270;2023-07-13T02:19:43;20.90;28.90
1021;DHT22;499;42.648;23.270;2023-07-13T02:22:10;20.80;28.50
1021;DHT22;499;42.648;23.270;2023-07-13T02:24:37;20.80;28.80
1021;DHT22;499;42.648;23.270;2023-07-13T02:27:05;20.90;28.40
1021;DHT22;499;42.648;23.270;2023-07-13T02:29:32;20.80;29.40
1021;DHT22;499;42.648;23.270;2023-07-13T02:32:00;20.70;30.00
1021;DHT22;499;42.648;23.270;2023-07-13T02:34:28;20.70;30.00
1021;DHT22;499;42.648;23.270;2023-07-13T02:36:55;20.60;30.40
1021;DHT22;499;42.648;23.270;2023-07-13T02:39:22;20.70;30.50
1021;DHT22;499;42.648;23.270;2023-07-13T02:41:49;20.80;30.20
1021;DHT22;499;42.648;23.270;2023-07-13T02:44:16;20.80;30.00
1021;DHT22;499;42.648;23.270;2023-07-13T02:46:43;20.80;29.90
1021;DHT22;499;42.648;23.270;2023-07-13T02:49:13;20.70;30.40
1021;DHT22;499;42.648;23.270;2023-07-13T02:51:40;20.70;29.90
1021;DHT22;499;42.648;23.270;2023-07-13T02:54:07;20.80;29.50
1021;DHT22;499;42.648;23.270;2023-07-13T02:56:34;20.80;29.40
1021;DHT22;499;42.648;23.270;2023-07-13T02:59:01;20.60;30.10
1021;DHT22;499;42.648;23.270;2023-07-13T03:01:28;20.70;29.70
1021;DHT22;499;42.648;23.270;2023-07-13T03:03:55;20.70;30.40
1021;DHT22;499;42.648;23.270;2023-07-13T03:06:24;20.70;30.40
1021;DHT22;499;42.648;23.270;2023-07-13T03:08:51;20.60;31.80
1021;DHT22;499;42.648;23.270;2023-07-13T03:11:19;20.50;32.50
1021;DHT22;499;42.648;23.270;2023-07-13T03:13:47;20.60;32.60
1021;DHT22;499;42.648;23.270;2023-07-13T03:16:15;20.60;31.80
1021;DHT22;499;42.648;23.270;2023-07-13T03:18:42;20.70;31.80
1021;DHT22;499;42.648;23.270;2023-07-13T03:21:10;20.80;31.10
1021;DHT22;499;42.648;23.270;2023-07-13T03:23:38;21.00;29.80
1021;DHT22;499;42.648;23.270;2023-07-13T03:26:07;21.00;30.70
1021;DHT22;499;42.648;23.270;2023-07-13T03:28:34;21.20;30.00
1021;DHT22;499;42.648;23.270;2023-07-13T03:31:04;21.40;30.10
1021;DHT22;499;42.648;23.270;2023-07-13T03:33:31;21.70;29.50
1021;DHT22;499;42.648;23.270;2023-07-13T03:35:59;22.00;28.50
1021;DHT22;499;42.648;23.270;2023-07-13T03:38:27;22.30;27.60
1021;DHT22;499;42.648;23.270;2023-07-13T03:40:55;22.70;26.80
1021;DHT22;499;42.648;23.270;2023-07-13T03:43:22;22.90;25.40
1021;DHT22;499;42.648;23.270;2023-07-13T03:45:49;23.20;25.00
1021;DHT22;499;42.648;23.270;2023-07-13T03:48:16;23.40;24.40
1021;DHT22;499;42.648;23.270;2023-07-13T03:50:43;23.40;24.40
1021;DHT22;499;42.648;23.270;2023-07-13T03:53:11;23.50;24.40
1021;DHT22;499;42.648;23.270;2023-07-13T03:55:38;23.50;24.60
1021;DHT22;499;42.648;23.270;2023-07-13T03:58:31;23.40;24.80
1021;DHT22;499;42.648;23.270;2023-07-13T04:00:59;23.50;25.30
1021;DHT22;499;42.648;23.270;2023-07-13T04:03:27;23.60;25.20
1021;DHT22;499;42.648;23.270;2023-07-13T04:05:55;23.60;25.40
1021;DHT22;499;42.648;23.270;2023-07-13T04:08:26;23.50;24.50
1021;DHT22;499;42.648;23.270;2023-07-13T04:10:54;23.40;25.30
1021;DHT22;499;42.648;23.270;2023-07-13T04:13:22;23.40;24.80
1021;DHT22;499;42.648;23.270;2023-07-13T04:15:51;23.40;25.00
1021;DHT22;499;42.648;23.270;2023-07-13T04:18:18;23.40;24.40
1021;DHT22;499;42.648;23.270;2023-07-13T04:20:46;23.50;24.50
1021;DHT22;499;42.648;23.270;2023-07-13T04:23:14;23.60;24.60
1021;DHT22;499;42.648;23.270;2023-07-13T04:25:43;23.60;24.60
1021;DHT22;499;42.648;23.270;2023-07-13T04:28:11;23.60;25.30
1021;DHT22;499;42.648;23.270;2023-07-13T04:30:38;23.70;24.70
1021;DHT22;499;42.648;23.270;2023-07-13T04:33:06;23.60;24.60
1021;DHT22;499;42.648;23.270;2023-07-13T04:35:34;23.60;24.60
1021;DHT22;499;42.648;23.270;2023-07-13T04:38:01;23.70;25.10
1021;DHT22;499;42.648;23.270;2023-07-13T04:40:29;23.80;25.70
1021;DHT22;499;42.648;23.270;2023-07-13T04:42:56;23.90;25.70
1021;DHT22;499;42.648;23.270;2023-07-13T04:45:24;23.90;26.00
1021;DHT22;499;42.648;23.270;2023-07-13T04:47:52;23.80;26.60
1021;DHT22;499;42.648;23.270;2023-07-13T04:50:20;23.30;25.50
1021;DHT22;499;42.648;23.270;2023-07-13T04:52:49;23.30;26.00
1021;DHT22;499;42.648;23.270;2023-07-13T04:55:16;23.30;25.10
1021;DHT22;499;42.648;23.270;2023-07-13T04:57:44;23.10;26.00
1021;DHT22;499;42.648;23.270;2023-07-13T05:00:12;23.10;26.50
1021;DHT22;499;42.648;23.270;2023-07-13T05:02:44;23.30;27.00
1021;DHT22;499;42.648;23.270;2023-07-13T05:05:12;23.50;25.50
1021;DHT22;499;42.648;23.270;2023-07-13T05:07:40;23.60;25.70
1021;DHT22;499;42.648;23.270;2023-07-13T05:10:09;23.60;26.60
1021;DHT22;499;42.648;23.270;2023-07-13T05:12:36;23.40;27.10
1021;DHT22;499;42.648;23.270;2023-07-13T05:15:04;23.50;26.90
1021;DHT22;499;42.648;23.270;2023-07-13T05:17:32;23.50;26.70
1021;DHT22;499;42.648;23.270;2023-07-13T05:19:59;23.60;26.80
1021;DHT22;499;42.648;23.270;2023-07-13T05:22:27;23.60;25.40
1021;DHT22;499;42.648;23.270;2023-07-13T05:24:56;23.70;25.80
1021;DHT22;499;42.648;23.270;2023-07-13T05:27:23;23.80;27.30
1021;DHT22;499;42.648;23.270;2023-07-13T05:29:50;23.90;27.20
1021;DHT22;499;42.648;23.270;2023-07-13T05:32:18;23.90;26.40
1021;DHT22;499;42.648;23.270;2023-07-13T05:34:45;24.00;26.20
1021;DHT22;499;42.648;23.270;2023-07-13T05:37:12;24.20;26.00
1021;DHT22;499;42.648;23.270;2023-07-13T05:39:39;24.30;25.00
1021;DHT22;499;42.648;23.270;2023-07-13T05:42:08;24.50;24.20
1021;DHT22;499;42.648;23.270;2023-07-13T05:44:35;24.50;24.30
1021;DHT22;499;42.648;23.270;2023-07-13T05:47:02;24.60;23.90
1021;DHT22;499;42.648;23.270;2023-07-13T05:49:29;24.50;24.20
1021;DHT22;499;42.648;23.270;2023-07-13T05:51:57;24.60;24.90
1021;DHT22;499;42.648;23.270;2023-07-13T05:54:24;24.70;24.20
1021;DHT22;499;42.648;23.270;2023-07-13T05:56:51;24.90;24.60
1021;DHT22;499;42.648;23.270;2023-07-13T05:59:19;25.00;24.40
1021;DHT22;499;42.648;23.270;2023-07-13T06:01:46;25.10;24.30
1021;DHT22;499;42.648;23.270;2023-07-13T06:04:14;25.20;24.50
1021;DHT22;499;42.648;23.270;2023-07-13T06:06:42;25.20;25.00
1021;DHT22;499;42.648;23.270;2023-07-13T06:09:09;25.30;24.40
1021;DHT22;499;42.648;23.270;2023-07-13T06:11:36;25.40;24.40
1021;DHT22;499;42.648;23.270;2023-07-13T06:14:04;25.40;24.40
1021;DHT22;499;42.648;23.270;2023-07-13T06:16:33;25.20;24.40
1021;DHT22;499;42.648;23.270;2023-07-13T06:19:01;25.10;24.50
1021;DHT22;499;42.648;23.270;2023-07-13T06:21:28;25.20;25.60
1021;DHT22;499;42.648;23.270;2023-07-13T06:23:55;25.20;24.40
1021;DHT22;499;42.648;23.270;2023-07-13T06:26:23;25.30;24.30
1021;DHT22;499;42.648;23.270;2023-07-13T06:28:50;25.50;24.90
1021;DHT22;499;42.648;23.270;2023-07-13T06:31:17;25.50;24.80
1021;DHT22;499;42.648;23.270;2023-07-13T06:33:46;25.60;24.60
1021;DHT22;499;42.648;23.270;2023-07-13T06:36:13;25.80;22.10
1021;DHT22;499;42.648;23.270;2023-07-13T06:38:40;25.80;21.90
1021;DHT22;499;42.648;23.270;2023-07-13T06:41:08;25.80;21.90
1021;DHT22;499;42.648;23.270;2023-07-13T06:43:35;25.80;22.50
1021;DHT22;499;42.648;23.270;2023-07-13T06:46:02;25.90;21.30
1021;DHT22;499;42.648;23.270;2023-07-13T06:48:30;25.90;20.70
1021;DHT22;499;42.648;23.270;2023-07-13T06:50:58;26.00;21.00
1021;DHT22;499;42.648;23.270;2023-07-13T06:53:25;26.10;19.50
1021;DHT22;499;42.648;23.270;2023-07-13T06:55:52;26.10;20.30
1021;DHT22;499;42.648;23.270;2023-07-13T06:58:21;26.20;19.30
1021;DHT22;499;42.648;23.270;2023-07-13T07:00:50;26.20;18.70
1021;DHT22;499;42.648;23.270;2023-07-13T07:03:18;26.40;17.90
1021;DHT22;499;42.648;23.270;2023-07-13T07:05:46;26.50;18.60
1021;DHT22;499;42.648;23.270;2023-07-13T07:08:14;26.60;18.30
1021;DHT22;499;42.648;23.270;2023-07-13T07:10:42;26.70;19.40
1021;DHT22;499;42.648;23.270;2023-07-13T07:13:09;26.80;19.00
1021;DHT22;499;42.648;23.270;2023-07-13T07:15:36;26.80;18.20
1021;DHT22;499;42.648;23.270;2023-07-13T07:18:04;26.70;17.70
1021;DHT22;499;42.648;23.270;2023-07-13T07:20:31;26.70;18.30
1021;DHT22;499;42.648;23.270;2023-07-13T07:22:58;26.80;18.40
1021;DHT22;499;42.648;23.270;2023-07-13T07:25:28;26.80;18.40
1021;DHT22;499;42.648;23.270;2023-07-13T07:27:57;26.90;19.20
1021;DHT22;499;42.648;23.270;2023-07-13T07:30:25;27.00;19.60
1021;DHT22;499;42.648;23.270;2023-07-13T07:32:52;27.10;18.80
1021;DHT22;499;42.648;23.270;2023-07-13T07:35:19;27.30;18.60
1021;DHT22;499;42.648;23.270;2023-07-13T07:37:46;27.40;18.70
1021;DHT22;499;42.648;23.270;2023-07-13T07:40:14;27.60;18.80
1021;DHT22;499;42.648;23.270;2023-07-13T07:42:43;27.70;18.80
1021;DHT22;499;42.648;23.270;2023-07-13T07:45:10;27.70;18.80
1021;DHT22;499;42.648;23.270;2023-07-13T07:47:37;27.90;17.50
1021;DHT22;499;42.648;23.270;2023-07-13T07:50:06;28.00;19.00
1021;DHT22;499;42.648;23.270;2023-07-13T07:52:33;28.10;17.60
1021;DHT22;499;42.648;23.270;2023-07-13T07:55:01;28.00;17.40
1021;DHT22;499;42.648;23.270;2023-07-13T07:57:28;27.80;17.70
1021;DHT22;499;42.648;23.270;2023-07-13T07:59:57;27.80;18.50
1021;DHT22;499;42.648;23.270;2023-07-13T08:02:24;27.90;17.40
1021;DHT22;499;42.648;23.270;2023-07-13T08:04:52;28.10;18.10
1021;DHT22;499;42.648;23.270;2023-07-13T08:07:19;28.20;18.20
1021;DHT22;499;42.648;23.270;2023-07-13T08:09:47;28.40;17.00
1021;DHT22;499;42.648;23.270;2023-07-13T08:12:18;28.40;16.60
1021;DHT22;499;42.648;23.270;2023-07-13T08:14:45;28.40;17.30
1021;DHT22;499;42.648;23.270;2023-07-13T08:17:13;28.50;16.50
1021;DHT22;499;42.648;23.270;2023-07-13T08:19:41;28.60;17.20
1021;DHT22;499;42.648;23.270;2023-07-13T08:22:08;28.70;16.90
1021;DHT22;499;42.648;23.270;2023-07-13T08:24:35;28.80;16.40
1021;DHT22;499;42.648;23.270;2023-07-13T08:27:03;28.90;17.40
1021;DHT22;499;42.648;23.270;2023-07-13T08:29:31;29.10;17.90
1021;DHT22;499;42.648;23.270;2023-07-13T08:31:58;29.20;17.10
1021;DHT22;499;42.648;23.270;2023-07-13T08:34:27;29.30;15.50
1021;DHT22;499;42.648;23.270;2023-07-13T08:36:55;29.30;15.70
1021;DHT22;499;42.648;23.270;2023-07-13T08:39:24;29.30;15.50
1021;DHT22;499;42.648;23.270;2023-07-13T08:41:58;29.30;15.10
1021;DHT22;499;42.648;23.270;2023-07-13T08:44:32;29.40;15.60
1021;DHT22;499;42.648;23.270;2023-07-13T08:47:02;29.30;15.50
1021;DHT22;499;42.648;23.270;2023-07-13T08:49:33;29.40;14.80
1021;DHT22;499;42.648;23.270;2023-07-13T08:52:03;29.40;14.20
1021;DHT22;499;42.648;23.270;2023-07-13T08:54:37;29.60;15.00
1021;DHT22;499;42.648;23.270;2023-07-13T08:57:13;29.70;15.70
1021;DHT22;499;42.648;23.270;2023-07-13T08:59:40;29.80;14.50
1021;DHT22;499;42.648;23.270;2023-07-13T09:02:22;29.80;14.80
1021;DHT22;499;42.648;23.270;2023-07-13T09:04:58;29.90;13.30
1021;DHT22;499;42.648;23.270;2023-07-13T09:07:43;29.90;12.80
1021;DHT22;499;42.648;23.270;2023-07-13T09:10:16;30.10;13.20
1021;DHT22;499;42.648;23.270;2023-07-13T09:12:53;30.10;11.60
1021;DHT22;499;42.648;23.270;2023-07-13T09:15:30;30.20;12.50
1021;DHT22;499;42.648;23.270;2023-07-13T09:18:03;30.30;11.10
1021;DHT22;499;42.648;23.270;2023-07-13T09:20:36;30.40;7.70
1021;DHT22;499;42.648;23.270;2023-07-13T09:23:09;30.60;9.30
1021;DHT22;499;42.648;23.270;2023-07-13T09:25:39;30.70;8.90
1021;DHT22;499;42.648;23.270;2023-07-13T09:28:11;30.80;9.70
1021;DHT22;499;42.648;23.270;2023-07-13T09:30:45;30.90;10.80
1021;DHT22;499;42.648;23.270;2023-07-13T09:33:13;31.00;9.70
1021;DHT22;499;42.648;23.270;2023-07-13T09:35:42;31.10;8.00
1021;DHT22;499;42.648;23.270;2023-07-13T09:38:14;31.20;9.50
1021;DHT22;499;42.648;23.270;2023-07-13T09:41:02;31.30;8.20
1021;DHT22;499;42.648;23.270;2023-07-13T09:43:34;31.40;9.00
1021;DHT22;499;42.648;23.270;2023-07-13T09:46:01;31.50;8.60
1021;DHT22;499;42.648;23.270;2023-07-13T09:48:34;31.50;9.00
1021;DHT22;499;42.648;23.270;2023-07-13T09:51:09;31.60;7.60
1021;DHT22;499;42.648;23.270;2023-07-13T09:53:41;31.50;8.20
1021;DHT22;499;42.648;23.270;2023-07-13T09:56:19;31.50;8.00
1021;DHT22;499;42.648;23.270;2023-07-13T09:58:47;31.70;6.20
1021;DHT22;499;42.648;23.270;2023-07-13T10:01:14;31.70;2.60
1021;DHT22;499;42.648;23.270;2023-07-13T10:03:52;31.70;1.00
1021;DHT22;499;42.648;23.270;2023-07-13T10:06:22;31.90;1.00
1021;DHT22;499;42.648;23.270;2023-07-13T10:08:50;31.90;1.00
1021;DHT22;499;42.648;23.270;2023-07-13T10:11:19;31.90;1.00
1021;DHT22;499;42.648;23.270;2023-07-13T10:13:51;32.10;1.00
1021;DHT22;499;42.648;23.270;2023-07-13T10:16:18;32.10;1.00
1021;DHT22;499;42.648;23.270;2023-07-13T10:18:47;32.20;1.00
1021;DHT22;499;42.648;23.270;2023-07-13T10:21:17;32.40;1.00
1021;DHT22;499;42.648;23.270;2023-07-13T10:23:48;32.60;1.00
1021;DHT22;499;42.648;23.270;2023-07-13T10:26:21;32.60;1.00
1021;DHT22;499;42.648;23.270;2023-07-13T10:28:52;32.70;1.00
1021;DHT22;499;42.648;23.270;2023-07-13T10:31:21;32.60;1.00
1021;DHT22;499;42.648;23.270;2023-07-13T10:33:49;32.70;1.00
1021;DHT22;499;42.648;23.270;2023-07-13T10:36:27;32.60;1.00
1021;DHT22;499;42.648;23.270;2023-07-13T10:38:59;32.60;1.00
1021;DHT22;499;42.648;23.270;2023-07-13T10:41:28;32.70;1.00
1021;DHT22;499;42.648;23.270;2023-07-13T10:43:56;32.80;1.00
1021;DHT22;499;42.648;23.270;2023-07-13T10:46:26;32.80;1.00
1021;DHT22;499;42.648;23.270;2023-07-13T10:48:57;32.70;1.00
1021;DHT22;499;42.648;23.270;2023-07-13T10:51:25;32.80;1.00
1021;DHT22;499;42.648;23.270;2023-07-13T10:54:19;32.80;1.00
1021;DHT22;499;42.648;23.270;2023-07-13T10:56:50;32.90;1.00
1021;DHT22;499;42.648;23.270;2023-07-13T10:59:23;32.80;1.00
1021;DHT22;499;42.648;23.270;2023-07-13T11:01:57;32.90;1.00
1021;DHT22;499;42.648;23.270;2023-07-13T11:04:26;32.90;1.00
1021;DHT22;499;42.648;23.270;2023-07-13T11:06:58;33.00;1.00
1021;DHT22;499;42.648;23.270;2023-07-13T11:09:36;33.00;1.00
1021;DHT22;499;42.648;23.270;2023-07-13T11:15:31;33.30;1.00
1021;DHT22;499;42.648;23.270;2023-07-13T11:18:03;33.40;1.00
1021;DHT22;499;42.648;23.270;2023-07-13T11:20:39;33.50;1.00
1021;DHT22;499;42.648;23.270;2023-07-13T11:23:29;33.50;1.00
1021;DHT22;499;42.648;23.270;2023-07-13T11:26:00;33.50;1.00
1021;DHT22;499;42.648;23.270;2023-07-13T11:28:30;33.40;1.00
1021;DHT22;499;42.648;23.270;2023-07-13T11:31:03;33.50;1.00
1021;DHT22;499;42.648;23.270;2023-07-13T11:33:58;33.60;1.00
1021;DHT22;499;42.648;23.270;2023-07-13T11:36:31;33.60;1.00
1021;DHT22;499;42.648;23.270;2023-07-13T11:39:04;33.70;1.00
1021;DHT22;499;42.648;23.270;2023-07-13T11:41:37;33.60;1.00
1021;DHT22;499;42.648;23.270;2023-07-13T11:44:13;33.50;1.00
1021;DHT22;499;42.648;23.270;2023-07-13T11:46:45;33.60;1.00
1021;DHT22;499;42.648;23.270;2023-07-13T11:49:16;33.70;1.00
1021;DHT22;499;42.648;23.270;2023-07-13T11:51:44;33.80;1.00
1021;DHT22;499;42.648;23.270;2023-07-13T11:54:20;33.90;1.00
1021;DHT22;499;42.648;23.270;2023-07-13T11:56:50;33.90;1.00
1021;DHT22;499;42.648;23.270;2023-07-13T11:59:18;34.10;1.00
1021;DHT22;499;42.648;23.270;2023-07-13T12:01:50;34.00;1.00
1021;DHT22;499;42.648;23.270;2023-07-13T12:04:22;33.90;1.00
1021;DHT22;499;42.648;23.270;2023-07-13T12:06:56;34.00;1.00
1021;DHT22;499;42.648;23.270;2023-07-13T12:09:26;34.20;1.00
1021;DHT22;499;42.648;23.270;2023-07-13T12:11:57;34.30;1.00
1021;DHT22;499;42.648;23.270;2023-07-13T12:14:25;34.20;1.00
1021;DHT22;499;42.648;23.270;2023-07-13T12:16:53;34.10;1.00
1021;DHT22;499;42.648;23.270;2023-07-13T12:19:22;34.00;1.00
1021;DHT22;499;42.648;23.270;2023-07-13T12:21:52;34.00;1.00
1021;DHT22;499;42.648;23.270;2023-07-13T12:24:21;34.10;1.00
1021;DHT22;499;42.648;23.270;2023-07-13T12:26:53;34.20;1.00
1021;DHT22;499;42.648;23.270;2023-07-13T12:29:22;34.20;1.00
1021;DHT22;499;42.648;23.270;2023-07-13T12:31:50;34.20;1.00
1021;DHT22;499;42.648;23.270;2023-07-13T12:34:19;34.40;1.00
1021;DHT22;499;42.648;23.270;2023-07-13T12:36:49;34.50;1.00
1021;DHT22;499;42.648;23.270;2023-07-13T12:39:19;34.60;1.00
1021;DHT22;499;42.648;23.270;2023-07-13T12:41:47;34.80;1.00
1021;DHT22;499;42.648;23.270;2023-07-13T12:44:17;35.00;1.00
1021;DHT22;499;42.648;23.270;2023-07-13T12:46:56;35.10;1.00
1021;DHT22;499;42.648;23.270;2023-07-13T12:49:29;34.90;1.00
1021;DHT22;499;42.648;23.270;2023-07-13T12:51:59;35.00;1.00
1021;DHT22;499;42.648;23.270;2023-07-13T12:54:27;35.00;1.00
1021;DHT22;499;42.648;23.270;2023-07-13T12:56:56;35.10;1.00
1021;DHT22;499;42.648;23.270;2023-07-13T12:59:28;35.10;1.00
1021;DHT22;499;42.648;23.270;2023-07-13T13:01:59;35.00;1.00
1021;DHT22;499;42.648;23.270;2023-07-13T13:04:28;35.00;1.00
1021;DHT22;499;42.648;23.270;2023-07-13T13:07:05;35.10;1.00
1021;DHT22;499;42.648;23.270;2023-07-13T13:09:35;35.00;1.00
1021;DHT22;499;42.648;23.270;2023-07-13T13:12:02;35.00;1.00
1021;DHT22;499;42.648;23.270;2023-07-13T13:14:31;35.10;1.00
1021;DHT22;499;42.648;23.270;2023-07-13T13:17:00;35.10;1.00
1021;DHT22;499;42.648;23.270;2023-07-13T13:19:28;35.20;1.00
1021;DHT22;499;42.648;23.270;2023-07-13T13:21:56;34.80;1.00
1021;DHT22;499;42.648;23.270;2023-07-13T13:24:27;34.80;1.00
1021;DHT22;499;42.648;23.270;2023-07-13T13:26:54;34.80;1.00
1021;DHT22;499;42.648;23.270;2023-07-13T13:29:24;34.90;1.00
1021;DHT22;499;42.648;23.270;2023-07-13T13:31:52;35.00;1.00
1021;DHT22;499;42.648;23.270;2023-07-13T13:34:21;35.10;1.00
1021;DHT22;499;42.648;23.270;2023-07-13T13:36:50;35.20;1.00
1021;DHT22;499;42.648;23.270;2023-07-13T13:39:21;35.20;1.00
1021;DHT22;499;42.648;23.270;2023-07-13T13:41:50;35.10;1.00
1021;DHT22;499;42.648;23.270;2023-07-13T13:44:18;35.10;1.00
1021;DHT22;499;42.648;23.270;2023-07-13T13:46:47;35.10;1.00
1021;DHT22;499;42.648;23.270;2023-07-13T13:49:17;35.10;1.00
1021;DHT22;499;42.648;23.270;2023-07-13T13:51:46;35.10;1.00
1021;DHT22;499;42.648;23.270;2023-07-13T13:54:15;35.10;1.00
1021;DHT22;499;42.648;23.270;2023-07-13T13:56:43;35.20;1.00
1021;DHT22;499;42.648;23.270;2023-07-13T13:59:10;35.30;1.00
1021;DHT22;499;42.648;23.270;2023-07-13T14:01:38;35.30;1.00
1021;DHT22;499;42.648;23.270;2023-07-13T14:04:08;35.30;1.00
1021;DHT22;499;42.648;23.270;2023-07-13T14:06:37;35.20;1.00
1021;DHT22;499;42.648;23.270;2023-07-13T14:09:09;35.20;1.00
1021;DHT22;499;42.648;23.270;2023-07-13T14:11:37;35.10;1.00
1021;DHT22;499;42.648;23.270;2023-07-13T14:14:04;35.00;1.00
1021;DHT22;499;42.648;23.270;2023-07-13T14:16:32;35.00;1.00
1021;DHT22;499;42.648;23.270;2023-07-13T14:19:00;35.20;1.00
1021;DHT22;499;42.648;23.270;2023-07-13T14:21:28;35.10;1.00
1021;DHT22;499;42.648;23.270;2023-07-13T14:23:55;35.20;1.00
1021;DHT22;499;42.648;23.270;2023-07-13T14:26:26;35.30;1.00
1021;DHT22;499;42.648;23.270;2023-07-13T14:28:55;35.50;1.00
1021;DHT22;499;42.648;23.270;2023-07-13T14:31:24;35.60;1.00
1021;DHT22;499;42.648;23.270;2023-07-13T14:33:54;35.60;1.00
1021;DHT22;499;42.648;23.270;2023-07-13T14:36:26;35.50;1.00
1021;DHT22;499;42.648;23.270;2023-07-13T14:38:55;35.70;1.00
1021;DHT22;499;42.648;23.270;2023-07-13T14:41:22;35.70;1.00
1021;DHT22;499;42.648;23.270;2023-07-13T14:43:52;35.50;1.00
1021;DHT22;499;42.648;23.270;2023-07-13T14:46:27;35.50;1.00
1021;DHT22;499;42.648;23.270;2023-07-13T14:49:00;35.60;1.00
1021;DHT22;499;42.648;23.270;2023-07-13T14:51:28;35.50;1.00
1021;DHT22;499;42.648;23.270;2023-07-13T14:53:55;35.50;1.00
1021;DHT22;499;42.648;23.270;2023-07-13T14:56:22;35.70;1.00
1021;DHT22;499;42.648;23.270;2023-07-13T14:58:51;35.80;1.00
1021;DHT22;499;42.648;23.270;2023-07-13T15:01:19;36.00;1.00
1021;DHT22;499;42.648;23.270;2023-07-13T15:03:49;36.20;1.00
1021;DHT22;499;42.648;23.270;2023-07-13T15:06:17;36.40;1.00
1021;DHT22;499;42.648;23.270;2023-07-13T15:08:46;36.60;1.00
1021;DHT22;499;42.648;23.270;2023-07-13T15:11:15;36.50;1.00
1021;DHT22;499;42.648;23.270;2023-07-13T15:13:42;36.50;1.00
1021;DHT22;499;42.648;23.270;2023-07-13T15:16:17;36.40;1.00
1021;DHT22;499;42.648;23.270;2023-07-13T15:18:45;36.60;1.00
1021;DHT22;499;42.648;23.270;2023-07-13T15:21:18;37.30;1.00
1021;DHT22;499;42.648;23.270;2023-07-13T15:23:46;37.60;1.00
1021;DHT22;499;42.648;23.270;2023-07-13T15:26:13;38.00;1.00
1021;DHT22;499;42.648;23.270;2023-07-13T15:28:41;38.80;1.00
1021;DHT22;499;42.648;23.270;2023-07-13T15:31:20;39.00;1.00
1021;DHT22;499;42.648;23.270;2023-07-13T15:36:16;40.00;1.00
1021;DHT22;499;42.648;23.270;2023-07-13T15:38:44;40.40;1.00
1021;DHT22;499;42.648;23.270;2023-07-13T15:41:17;40.70;1.00
1021;DHT22;499;42.648;23.270;2023-07-13T15:43:47;41.30;1.00
1021;DHT22;499;42.648;23.270;2023-07-13T15:46:14;41.70;1.00
1021;DHT22;499;42.648;23.270;2023-07-13T15:48:43;41.60;1.00
1021;DHT22;499;42.648;23.270;2023-07-13T15:51:16;41.60;1.00
1021;DHT22;499;42.648;23.270;2023-07-13T15:53:45;41.10;1.00
1021;DHT22;499;42.648;23.270;2023-07-13T15:56:25;41.70;1.00
1021;DHT22;499;42.648;23.270;2023-07-13T15:58:52;41.60;1.00
1021;DHT22;499;42.648;23.270;2023-07-13T16:01:20;41.60;1.00
1021;DHT22;499;42.648;23.270;2023-07-13T16:03:50;41.60;1.00
1021;DHT22;499;42.648;23.270;2023-07-13T16:06:20;41.40;1.00
1021;DHT22;499;42.648;23.270;2023-07-13T16:08:49;41.10;1.00
1021;DHT22;499;42.648;23.270;2023-07-13T16:11:21;41.10;1.00
1021;DHT22;499;42.648;23.270;2023-07-13T16:13:49;40.50;1.00
1021;DHT22;499;42.648;23.270;2023-07-13T16:16:22;40.80;1.00
1021;DHT22;499;42.648;23.270;2023-07-13T16:18:52;41.00;1.00
1021;DHT22;499;42.648;23.270;2023-07-13T16:21:22;41.20;1.00
1021;DHT22;499;42.648;23.270;2023-07-13T16:23:50;40.80;1.00
1021;DHT22;499;42.648;23.270;2023-07-13T16:26:26;40.20;1.00
1021;DHT22;499;42.648;23.270;2023-07-13T16:28:54;40.00;1.00